Time;durP1;ratioP1;P1;durP2;ratioP2;P2;SDS_P1;SDS_P2;PMS_P1;PMS_P2;Temp;Humidity;BMP_temperature;BMP_pressure;BME280_temperature;BME280_humidity;BME280_pressure;Samples;Min_cycle;Max_cycle;Signal;HPM_P1;HPM_P2
2023/02/02 00:00:31;;;;;;;12.32;3.10;;;;;;;5.94;64.97;100331.44;10417183;28;20057;-66
2023/02/02 00:05:33;;;;;;;11.27;3.00;;;;;;;6.04;64.56;100325.03;10418317;28;20888;-66
2023/02/02 00:10:34;;;;;;;10.88;3.20;;;;;;;6.04;64.49;100330.22;10419137;28;20055;-66
2023/02/02 00:15:36;;;;;;;12.07;3.65;;;;;;;6.07;64.37;100332.72;10418734;28;20364;-66
2023/02/02 00:20:38;;;;;;;10.50;3.33;;;;;;;6.17;64.14;100333.22;10416909;28;20053;-66
2023/02/02 00:25:39;;;;;;;9.80;3.08;;;;;;;6.19;64.42;100329.69;10412328;28;20417;-66
2023/02/02 00:30:41;;;;;;;12.60;3.65;;;;;;;6.21;64.54;100327.03;10416497;28;20071;-66
2023/02/02 00:35:43;;;;;;;13.30;3.35;;;;;;;6.24;64.38;100327.78;10412076;28;20049;-66
2023/02/02 00:40:44;;;;;;;11.60;3.13;;;;;;;6.20;64.43;100320.16;10412882;28;20060;-66
2023/02/02 00:45:47;;;;;;;12.30;3.75;;;;;;;6.14;64.56;100323.78;10414724;28;20290;-66
2023/02/02 00:50:48;;;;;;;11.77;3.58;;;;;;;6.20;64.75;100327.94;10414917;28;20536;-66
2023/02/02 00:55:50;;;;;;;12.20;3.30;;;;;;;6.21;64.87;100335.66;10408725;28;20053;-66
2023/02/02 01:00:52;;;;;;;12.68;3.50;;;;;;;6.26;64.79;100339.00;10416242;28;20057;-66
2023/02/02 01:05:53;;;;;;;11.50;3.70;;;;;;;6.28;64.74;100336.34;10404569;28;20413;-66
2023/02/02 01:10:58;;;;;;;11.77;3.58;;;;;;;6.28;65.00;100342.38;10417044;28;20049;-66
2023/02/02 01:16:02;;;;;;;12.40;3.88;;;;;;;6.34;65.06;100329.19;10423536;28;20045;-66
2023/02/02 01:21:06;;;;;;;11.75;3.70;;;;;;;6.36;64.62;100323.91;10414244;28;20048;-66
2023/02/02 01:26:10;;;;;;;14.98;3.85;;;;;;;6.34;64.76;100334.38;10411721;28;20398;-66
2023/02/02 01:31:17;;;;;;;15.98;3.55;;;;;;;6.40;64.58;100332.44;10411188;28;20057;-66
2023/02/02 01:36:21;;;;;;;12.95;3.30;;;;;;;6.31;64.85;100328.41;10414572;28;20154;-65
2023/02/02 01:41:25;;;;;;;12.57;4.30;;;;;;;6.40;64.66;100324.66;10414629;28;20045;-66
2023/02/02 01:46:28;;;;;;;17.80;3.80;;;;;;;6.38;64.78;100329.06;10409225;28;20397;-66
2023/02/02 01:51:35;;;;;;;16.27;4.03;;;;;;;6.36;64.89;100318.72;10414333;28;20071;-65
2023/02/02 01:56:43;;;;;;;12.00;3.95;;;;;;;6.38;64.77;100324.72;10412644;28;20056;-65
2023/02/02 02:01:47;;;;;;;15.48;3.63;;;;;;;6.36;65.00;100334.31;10416271;28;20048;-65
2023/02/02 02:06:52;;;;;;;15.63;4.13;;;;;;;6.34;65.28;100336.97;10413073;28;20056;-65
2023/02/02 02:11:54;;;;;;;14.05;4.55;;;;;;;6.31;65.78;100350.06;10411173;28;20071;-66
2023/02/02 02:17:20;;;;;;;12.65;4.20;;;;;;;6.22;66.44;100344.31;10414450;28;20170;-65
2023/02/02 02:27:53;;;;;;;20.17;4.57;;;;;;;6.21;66.63;100356.44;10412287;28;20052;-65
2023/02/02 02:33:09;;;;;;;16.17;4.68;;;;;;;6.17;67.11;100352.25;10414707;28;20057;-65
2023/02/02 02:38:33;;;;;;;13.35;4.60;;;;;;;6.16;67.18;100354.94;10410342;28;20107;-66
2023/02/02 02:43:47;;;;;;;11.48;4.03;;;;;;;6.04;67.73;100356.19;10422865;28;20316;-66
2023/02/02 02:48:49;;;;;;;11.48;3.80;;;;;;;5.91;67.77;100343.69;10418852;28;20045;-66
2023/02/02 02:53:50;;;;;;;10.15;3.58;;;;;;;6.05;67.37;100351.84;10417698;28;20725;-65
2023/02/02 02:59:01;;;;;;;10.68;4.20;;;;;;;5.96;68.07;100357.38;10418470;28;20059;-65
2023/02/02 03:04:17;;;;;;;13.27;4.25;;;;;;;5.93;68.25;100353.13;10426371;28;20508;-65
2023/02/02 03:09:24;;;;;;;12.25;4.15;;;;;;;5.95;68.02;100353.91;10429397;28;20053;-66
2023/02/02 03:14:26;;;;;;;14.57;4.05;;;;;;;5.90;68.16;100347.19;10430022;28;20450;-65
2023/02/02 03:19:29;;;;;;;11.70;3.97;;;;;;;5.91;68.26;100339.34;10427910;28;20049;-65
2023/02/02 03:24:30;;;;;;;14.90;3.80;;;;;;;5.92;68.15;100348.81;10426970;28;20045;-65
2023/02/02 03:29:32;;;;;;;11.13;3.70;;;;;;;5.84;68.43;100340.44;10423052;28;20045;-65
2023/02/02 03:34:33;;;;;;;11.15;4.10;;;;;;;5.94;68.03;100338.41;10426738;28;20045;-65
2023/02/02 03:39:35;;;;;;;15.27;3.83;;;;;;;5.94;67.93;100339.22;10429187;28;20560;-65
2023/02/02 03:44:37;;;;;;;11.00;3.70;;;;;;;5.96;67.88;100337.41;10425373;28;20518;-65
2023/02/02 03:49:38;;;;;;;11.27;4.38;;;;;;;5.99;67.88;100331.28;10426419;28;20048;-65
2023/02/02 03:54:40;;;;;;;12.60;3.88;;;;;;;6.01;67.71;100345.91;10425767;28;20048;-66
2023/02/02 03:59:41;;;;;;;12.73;4.43;;;;;;;6.03;67.71;100351.91;10424272;28;20053;-65
2023/02/02 04:04:43;;;;;;;14.45;4.32;;;;;;;6.09;67.38;100354.28;10419616;28;20084;-65
2023/02/02 04:09:45;;;;;;;14.48;4.05;;;;;;;5.95;67.74;100351.31;10422599;28;20229;-65
2023/02/02 04:14:46;;;;;;;15.52;4.18;;;;;;;6.02;67.61;100349.38;10418080;28;20048;-66
2023/02/02 04:19:48;;;;;;;11.77;4.20;;;;;;;6.03;67.42;100353.63;10417868;28;20409;-65
2023/02/02 04:24:50;;;;;;;11.38;3.90;;;;;;;6.08;67.51;100365.56;10414898;28;20923;-65
2023/02/02 04:29:51;;;;;;;12.20;4.00;;;;;;;6.10;67.46;100363.75;10417166;28;20041;-65
2023/02/02 04:34:53;;;;;;;9.55;3.65;;;;;;;6.08;67.56;100369.91;10420846;28;20548;-65
2023/02/02 04:39:55;;;;;;;10.77;3.63;;;;;;;6.06;67.70;100377.75;10415128;28;20048;-66
2023/02/02 04:44:56;;;;;;;10.27;3.47;;;;;;;6.05;67.89;100388.19;10416532;28;20050;-65
2023/02/02 04:49:58;;;;;;;9.93;3.50;;;;;;;6.10;67.78;100389.72;10417931;28;20092;-65
2023/02/02 04:55:00;;;;;;;11.40;3.78;;;;;;;6.09;67.82;100390.63;10415894;28;20052;-65
2023/02/02 05:00:02;;;;;;;10.52;3.38;;;;;;;6.06;67.94;100393.31;10410330;28;20057;-65
2023/02/02 05:05:05;;;;;;;9.95;3.40;;;;;;;5.96;68.29;100391.94;10417043;28;20055;-66
2023/02/02 05:10:09;;;;;;;9.50;3.22;;;;;;;6.00;68.24;100393.53;10413114;28;20068;-66
2023/02/02 05:15:10;;;;;;;7.57;2.95;;;;;;;5.88;68.56;100399.13;10418217;28;20052;-66
2023/02/02 05:20:12;;;;;;;7.68;2.80;;;;;;;5.92;68.54;100397.31;10416599;28;20502;-66
2023/02/02 05:25:14;;;;;;;14.50;3.40;;;;;;;5.83;68.95;100410.56;10418492;28;20041;-66
2023/02/02 05:30:16;;;;;;;13.52;7.75;;;;;;;5.91;68.75;100414.63;10418485;28;20060;-66
2023/02/02 05:35:18;;;;;;;10.68;3.60;;;;;;;5.97;68.49;100418.75;10419386;28;20049;-66
2023/02/02 05:40:20;;;;;;;12.25;3.70;;;;;;;5.98;68.67;100416.09;10412439;28;20052;-66
2023/02/02 05:45:22;;;;;;;11.68;3.53;;;;;;;5.92;68.87;100420.66;10411982;28;20045;-66
2023/02/02 05:50:24;;;;;;;11.68;3.20;;;;;;;5.94;68.80;100430.09;10415925;28;20067;-66
2023/02/02 05:55:26;;;;;;;8.50;3.25;;;;;;;5.95;68.90;100423.16;10415937;28;20701;-66
2023/02/02 06:00:27;;;;;;;11.15;3.85;;;;;;;5.88;68.80;100430.28;10417329;28;20045;-66
2023/02/02 06:05:29;;;;;;;11.00;3.03;;;;;;;5.84;68.83;100436.47;10416566;28;20060;-66
2023/02/02 06:10:31;;;;;;;8.60;3.05;;;;;;;5.80;68.97;100432.28;10413438;28;20049;-66
2023/02/02 06:15:33;;;;;;;11.77;3.63;;;;;;;5.89;68.90;100434.59;10417704;28;20052;-66
2023/02/02 06:20:36;;;;;;;11.05;3.70;;;;;;;5.95;68.92;100431.78;10423138;28;20500;-66
2023/02/02 06:25:37;;;;;;;9.88;3.70;;;;;;;5.92;68.93;100429.28;10421958;28;20490;-66
2023/02/02 06:30:39;;;;;;;10.02;3.72;;;;;;;5.82;69.33;100425.28;10423784;28;20037;-66
2023/02/02 06:35:43;;;;;;;8.57;3.10;;;;;;;5.85;68.93;100420.00;10417722;28;20127;-66
2023/02/02 06:40:45;;;;;;;11.02;3.63;;;;;;;5.83;68.83;100416.63;10423424;28;20413;-66
2023/02/02 06:45:46;;;;;;;12.45;3.50;;;;;;;5.89;68.58;100433.72;10417882;28;20041;-66
2023/02/02 06:50:48;;;;;;;9.68;2.92;;;;;;;5.91;68.54;100443.19;10420665;28;20049;-66
2023/02/02 06:55:54;;;;;;;10.98;3.30;;;;;;;5.94;68.49;100432.69;10422119;28;20049;-66
2023/02/02 07:01:07;;;;;;;13.65;3.47;;;;;;;5.96;68.56;100451.66;10418568;28;20057;-66
2023/02/02 07:06:28;;;;;;;10.75;3.08;;;;;;;5.92;68.76;100457.00;10417187;28;20049;-66
2023/02/02 07:11:31;;;;;;;9.93;3.20;;;;;;;5.97;68.57;100450.75;10423188;28;20049;-66
2023/02/02 07:16:38;;;;;;;14.68;4.28;;;;;;;6.02;68.50;100451.44;10418373;28;20194;-66
2023/02/02 07:21:40;;;;;;;10.55;3.65;;;;;;;5.96;68.58;100458.59;10420271;28;20056;-66
2023/02/02 07:26:41;;;;;;;12.48;3.42;;;;;;;5.99;68.46;100472.34;10418909;28;20496;-66
2023/02/02 07:31:43;;;;;;;11.35;3.60;;;;;;;5.94;68.72;100469.03;10419625;28;20400;-66
2023/02/02 07:36:45;;;;;;;10.60;3.50;;;;;;;6.08;68.36;100458.19;10420849;28;20888;-66
2023/02/02 07:41:47;;;;;;;8.32;3.15;;;;;;;6.19;68.03;100461.28;10420009;28;20040;-66
2023/02/02 07:46:48;;;;;;;12.60;3.67;;;;;;;6.13;68.07;100467.53;10413837;28;20052;-66
2023/02/02 07:51:50;;;;;;;9.05;3.80;;;;;;;6.21;68.08;100477.66;10420762;28;20494;-66
2023/02/02 07:56:52;;;;;;;12.60;3.92;;;;;;;6.13;68.23;100480.50;10414759;28;20472;-66
2023/02/02 08:01:53;;;;;;;12.13;3.20;;;;;;;6.13;68.11;100475.31;10420034;28;20412;-66
2023/02/02 08:06:55;;;;;;;9.02;3.10;;;;;;;6.14;68.09;100487.38;10415605;28;20072;-66
2023/02/02 08:12:00;;;;;;;12.20;3.30;;;;;;;6.11;68.40;100482.31;10421310;28;20478;-66
2023/02/02 08:17:02;;;;;;;11.40;4.10;;;;;;;6.21;68.21;100490.63;10421299;28;20051;-66
2023/02/02 08:22:04;;;;;;;8.50;3.15;;;;;;;6.06;68.65;100502.38;10420338;28;20505;-66
2023/02/02 08:27:07;;;;;;;13.35;3.45;;;;;;;6.28;68.38;100498.25;10419460;28;20049;-66
2023/02/02 08:32:08;;;;;;;8.75;3.22;;;;;;;6.46;67.96;100491.56;10409282;28;20049;-66
2023/02/02 08:37:10;;;;;;;8.25;3.15;;;;;;;6.34;68.22;100489.38;10419791;28;20056;-66
2023/02/02 08:42:11;;;;;;;9.38;3.38;;;;;;;6.30;68.31;100496.44;10419391;28;20041;-66
2023/02/02 08:47:13;;;;;;;11.07;2.90;;;;;;;6.25;68.37;100503.50;10407669;28;20044;-66
2023/02/02 08:52:15;;;;;;;7.68;3.10;;;;;;;6.42;68.29;100505.56;10419393;28;20048;-66
2023/02/02 08:57:16;;;;;;;7.53;2.85;;;;;;;6.59;67.86;100503.25;10410275;28;20390;-66
2023/02/02 09:02:18;;;;;;;9.40;3.15;;;;;;;6.59;68.06;100505.00;10416799;28;20049;-66
2023/02/02 09:07:20;;;;;;;6.75;2.85;;;;;;;6.77;67.57;100515.59;10411840;28;20099;-66
2023/02/02 09:12:25;;;;;;;9.40;3.00;;;;;;;6.85;67.21;100515.31;10416558;28;20057;-66
2023/02/02 09:17:28;;;;;;;14.40;3.00;;;;;;;6.74;67.50;100522.63;10413275;28;20405;-64
2023/02/02 09:22:30;;;;;;;10.65;2.92;;;;;;;6.69;67.66;100527.16;10415423;28;20072;-63
2023/02/02 09:27:36;;;;;;;10.07;2.85;;;;;;;6.80;67.42;100531.06;10412347;28;20409;-63
2023/02/02 09:32:38;;;;;;;8.55;3.08;;;;;;;6.66;67.80;100541.09;10415463;28;20056;-64
2023/02/02 09:37:40;;;;;;;8.23;2.95;;;;;;;6.89;67.27;100548.13;10408384;28;20056;-63
2023/02/02 09:43:07;;;;;;;9.80;3.65;;;;;;;7.16;66.25;100550.56;10416510;28;20204;-63
2023/02/02 09:48:53;;;;;;;7.95;3.00;;;;;;;7.14;65.62;100552.38;10411262;28;20045;-63
2023/02/02 09:54:03;;;;;;;6.93;2.78;;;;;;;7.51;65.67;100559.69;10412141;28;20045;-63
2023/02/02 09:59:20;;;;;;;8.83;3.10;;;;;;;7.49;66.07;100564.09;10415057;28;20056;-63
2023/02/02 10:04:32;;;;;;;8.05;2.60;;;;;;;7.55;65.32;100568.25;10412791;28;20543;-63
2023/02/02 10:10:01;;;;;;;6.82;2.42;;;;;;;7.59;65.45;100575.03;10413015;28;20041;-63
2023/02/02 10:15:29;;;;;;;7.70;2.83;;;;;;;7.72;64.99;100579.72;10409555;28;20053;-63
2023/02/02 10:20:46;;;;;;;7.65;2.90;;;;;;;7.80;64.97;100595.03;10413028;28;20551;-63
2023/02/02 10:26:13;;;;;;;7.32;2.75;;;;;;;7.37;65.99;100593.19;10398276;28;20510;-63
2023/02/02 10:31:37;;;;;;;5.93;2.75;;;;;;;7.32;66.30;100592.50;10411231;28;20059;-63
2023/02/02 10:37:03;;;;;;;8.45;2.65;;;;;;;7.30;66.70;100603.88;10414694;28;20063;-64
2023/02/02 10:42:23;;;;;;;7.57;2.60;;;;;;;7.37;66.20;100602.72;10412340;28;20041;-63
2023/02/02 10:47:31;;;;;;;7.35;2.60;;;;;;;7.38;65.97;100599.25;10413291;28;20056;-63
2023/02/02 10:52:34;;;;;;;7.07;2.40;;;;;;;7.27;66.15;100612.63;10409021;28;20509;-64
2023/02/02 10:57:44;;;;;;;7.47;2.13;;;;;;;7.23;66.66;100615.38;10411432;28;20041;-64
2023/02/02 11:02:47;;;;;;;6.75;2.40;;;;;;;7.10;66.77;100615.00;10419074;28;20497;-64
2023/02/02 11:07:52;;;;;;;5.30;2.38;;;;;;;7.31;66.48;100624.63;10413845;28;20052;-64
2023/02/02 11:12:56;;;;;;;8.48;2.38;;;;;;;7.31;66.24;100624.63;10417022;28;20049;-64
2023/02/02 11:18:15;;;;;;;5.30;2.65;;;;;;;7.41;66.28;100630.34;10415476;28;20044;-64
2023/02/02 11:23:19;;;;;;;6.50;2.30;;;;;;;7.43;66.17;100615.53;10425488;28;20083;-64
2023/02/02 11:28:29;;;;;;;8.10;2.50;;;;;;;7.61;65.82;100620.09;10427448;28;20591;-64
2023/02/02 11:33:32;;;;;;;5.70;2.42;;;;;;;7.59;65.63;100609.72;10427935;28;20459;-64
2023/02/02 11:38:34;;;;;;;3.67;2.03;;;;;;;7.59;65.67;100609.72;10427208;28;20444;-64
2023/02/02 11:43:40;;;;;;;7.35;2.47;;;;;;;7.48;65.84;100611.88;10422072;28;20485;-64
2023/02/02 11:48:49;;;;;;;7.13;3.42;;;;;;;7.39;66.58;100614.78;10421521;28;20055;-64
2023/02/02 11:54:16;;;;;;;5.68;2.28;;;;;;;7.44;65.76;100614.63;10418555;28;20516;-64
2023/02/02 11:59:29;;;;;;;5.28;2.45;;;;;;;7.40;66.05;100628.66;10423475;28;20056;-63
2023/02/02 12:04:31;;;;;;;6.90;2.80;;;;;;;7.49;66.03;100625.75;10416848;28;20053;-64
2023/02/02 12:09:33;;;;;;;8.23;2.67;;;;;;;7.49;65.57;100631.78;10418570;28;20056;-64
2023/02/02 12:14:53;;;;;;;7.97;3.00;;;;;;;7.54;65.42;100640.28;10424708;28;20436;-64
2023/02/02 12:20:27;;;;;;;7.80;2.90;;;;;;;7.59;64.76;100627.94;10424262;28;20041;-64
2023/02/02 12:25:53;;;;;;;8.80;2.50;;;;;;;7.71;64.67;100643.09;10406768;28;20135;-64
2023/02/02 12:31:08;;;;;;;7.10;2.65;;;;;;;7.71;64.83;100631.84;10427075;28;20041;-64
2023/02/02 12:36:10;;;;;;;6.57;2.60;;;;;;;7.87;64.72;100641.66;10419084;28;20057;-63
2023/02/02 12:41:39;;;;;;;7.72;2.80;;;;;;;7.87;64.14;100639.06;10421841;28;20416;-64
2023/02/02 12:46:55;;;;;;;10.50;3.22;;;;;;;7.94;64.25;100643.09;10421102;28;20079;-64
2023/02/02 12:52:22;;;;;;;6.28;2.67;;;;;;;7.93;63.76;100628.41;10421385;28;20053;-63
2023/02/02 12:57:35;;;;;;;8.48;2.55;;;;;;;8.11;63.54;100639.03;10414135;28;20045;-63
2023/02/02 13:02:59;;;;;;;8.02;2.80;;;;;;;8.20;62.92;100636.09;10421597;28;20139;-63
2023/02/02 13:08:10;;;;;;;6.88;2.35;;;;;;;8.36;62.69;100634.59;10419091;28;20429;-63
2023/02/02 13:13:35;;;;;;;8.68;2.50;;;;;;;8.11;60.88;100639.91;10420562;28;20361;-63
2023/02/02 13:18:59;;;;;;;7.00;2.65;;;;;;;8.36;62.04;100638.03;10416467;28;20048;-63
2023/02/02 13:24:06;;;;;;;11.25;2.67;;;;;;;8.45;61.92;100655.06;10413920;28;20060;-63
2023/02/02 13:29:32;;;;;;;9.00;3.00;;;;;;;8.52;60.96;100656.53;10417249;28;20043;-63
2023/02/02 13:35:04;;;;;;;9.23;2.90;;;;;;;8.59;60.29;100658.81;10421483;28;20052;-63
2023/02/02 13:40:14;;;;;;;9.75;3.20;;;;;;;8.67;61.48;100668.94;10418837;28;20059;-63
2023/02/02 13:45:39;;;;;;;7.00;2.90;;;;;;;8.58;61.43;100664.94;10408784;28;20728;-63
2023/02/02 13:51:21;;;;;;;7.60;3.20;;;;;;;8.54;61.33;100671.19;10422469;28;20070;-63
2023/02/02 13:56:35;;;;;;;;;;;;;;;8.17;62.36;100657.91;10421297;28;20060;-63
2023/02/02 14:01:37;;;;;;;9.07;2.97;;;;;;;8.56;61.81;100660.69;10424377;28;19925;-63
2023/02/02 14:07:09;;;;;;;13.32;3.20;;;;;;;8.66;61.33;100662.03;10420972;28;20049;-64
2023/02/02 14:12:11;;;;;;;8.77;2.72;;;;;;;8.73;61.73;100668.69;10417476;28;20052;-63
2023/02/02 14:17:32;;;;;;;8.98;3.00;;;;;;;8.59;61.77;100663.16;10421061;28;20056;-63
2023/02/02 14:22:53;;;;;;;8.88;3.20;;;;;;;8.36;62.81;100671.06;10424936;28;20497;-63
2023/02/02 14:28:01;;;;;;;8.63;3.13;;;;;;;8.25;63.38;100683.66;10422331;28;20055;-63
2023/02/02 14:33:26;;;;;;;9.88;3.22;;;;;;;8.02;64.45;100697.50;10423915;28;20047;-64
2023/02/02 14:38:57;;;;;;;7.25;2.83;;;;;;;7.96;64.53;100693.38;10427002;28;20481;-63
2023/02/02 14:44:03;;;;;;;9.30;3.15;;;;;;;8.21;64.84;100695.09;10428070;28;20045;-64
2023/02/02 14:49:07;;;;;;;7.78;3.03;;;;;;;8.17;64.42;100699.59;10426704;28;20139;-63
2023/02/02 14:54:19;;;;;;;10.68;3.53;;;;;;;8.14;64.61;100702.28;10429190;28;20048;-64
2023/02/02 14:59:25;;;;;;;9.30;3.47;;;;;;;8.05;64.55;100697.41;10430240;28;20056;-64
2023/02/02 15:04:28;;;;;;;9.60;3.00;;;;;;;7.87;64.78;100696.34;10427593;28;20049;-64
2023/02/02 15:09:35;;;;;;;8.75;2.40;;;;;;;7.61;65.10;100696.41;10430852;28;20045;-64
2023/02/02 15:14:40;;;;;;;9.40;2.70;;;;;;;7.69;64.74;100710.00;10427154;28;20515;-63
2023/02/02 15:19:46;;;;;;;9.00;3.58;;;;;;;7.53;64.92;100716.66;10426849;28;20240;-63
2023/02/02 15:24:49;;;;;;;8.65;2.65;;;;;;;7.66;64.71;100724.88;10427936;28;20152;-63
2023/02/02 15:30:03;;;;;;;11.45;2.75;;;;;;;7.72;63.76;100742.88;10430825;28;20049;-63
2023/02/02 15:35:13;;;;;;;10.30;4.30;;;;;;;7.89;63.65;100749.22;10427669;28;20057;-64
2023/02/02 15:40:22;;;;;;;9.77;4.38;;;;;;;7.74;63.53;100739.34;10429983;28;20167;-64
2023/02/02 15:45:29;;;;;;;8.40;2.70;;;;;;;7.74;63.32;100739.34;10428454;28;20048;-63
2023/02/02 15:50:32;;;;;;;9.13;2.50;;;;;;;7.80;63.22;100746.94;10426242;28;20056;-64
2023/02/02 15:55:35;;;;;;;8.00;2.30;;;;;;;7.85;62.86;100770.22;10426519;28;20059;-63
2023/02/02 16:00:37;;;;;;;5.47;2.00;;;;;;;7.82;62.59;100772.91;10428906;28;20045;-63
2023/02/02 16:05:48;;;;;;;8.95;2.83;;;;;;;7.80;62.16;100767.75;10412753;28;20037;-63
2023/02/02 16:11:05;;;;;;;7.07;2.25;;;;;;;7.79;61.82;100763.44;10426523;28;20064;-63
2023/02/02 16:16:25;;;;;;;10.95;2.47;;;;;;;7.66;61.85;100767.41;10424610;28;20056;-63
2023/02/02 16:21:28;;;;;;;5.63;2.20;;;;;;;7.82;62.00;100778.97;10427509;28;20067;-63
2023/02/02 16:26:32;;;;;;;6.10;3.60;;;;;;;7.81;61.86;100766.03;10424759;28;20041;-64
2023/02/02 16:31:34;;;;;;;8.90;2.45;;;;;;;7.74;62.10;100785.34;10421475;28;20098;-64
2023/02/02 16:36:36;;;;;;;5.82;2.10;;;;;;;7.84;61.98;100792.78;10423146;28;20053;-63
2023/02/02 16:41:37;;;;;;;5.25;2.17;;;;;;;7.94;61.94;100788.97;10419132;28;20078;-64
2023/02/02 16:46:46;;;;;;;6.85;2.00;;;;;;;8.00;61.25;100787.88;10419468;28;20518;-66
2023/02/02 16:52:09;;;;;;;5.50;2.05;;;;;;;7.93;61.25;100796.84;10416790;28;20057;-66
2023/02/02 16:57:19;;;;;;;5.32;2.15;;;;;;;8.10;60.73;100799.72;10422308;28;20045;-66
2023/02/02 17:02:27;;;;;;;7.87;2.20;;;;;;;7.98;60.93;100800.97;10402897;28;20044;-65
2023/02/02 17:07:31;;;;;;;7.20;2.20;;;;;;;7.96;61.07;100809.72;10415987;28;20330;-66
2023/02/02 17:12:33;;;;;;;8.18;2.90;;;;;;;7.94;61.08;100819.34;10421701;28;20049;-66
2023/02/02 17:17:36;;;;;;;8.48;2.30;;;;;;;7.91;61.09;100822.09;10422901;28;20056;-66
2023/02/02 17:22:41;;;;;;;7.40;2.00;;;;;;;7.82;60.64;100838.88;10423188;28;20128;-66
2023/02/02 17:27:44;;;;;;;7.07;2.20;;;;;;;7.96;60.61;100841.84;10422453;28;20043;-65
2023/02/02 17:32:45;;;;;;;6.90;2.00;;;;;;;7.94;60.59;100855.81;10426095;28;20142;-65
2023/02/02 17:37:48;;;;;;;7.85;2.42;;;;;;;7.88;60.47;100849.06;10424389;28;20052;-65
2023/02/02 17:42:51;;;;;;;6.68;2.05;;;;;;;7.72;60.54;100855.72;10424075;28;20053;-66
2023/02/02 17:47:53;;;;;;;7.40;1.80;;;;;;;7.63;60.80;100857.78;10425870;28;20615;-66
2023/02/02 17:52:55;;;;;;;7.00;2.30;;;;;;;7.72;60.57;100865.25;10425617;28;20056;-66
2023/02/02 17:57:57;;;;;;;6.05;1.90;;;;;;;7.76;60.52;100872.94;10425881;28;20060;-66
2023/02/02 18:03:07;;;;;;;6.93;2.10;;;;;;;7.77;59.98;100872.00;10424993;28;20061;-66
2023/02/02 18:08:12;;;;;;;6.20;2.35;;;;;;;7.75;60.43;100865.19;10424999;28;20045;-65
2023/02/02 18:13:15;;;;;;;6.47;1.90;;;;;;;7.66;60.40;100858.53;10431799;28;20484;-66
2023/02/02 18:18:17;;;;;;;8.52;1.92;;;;;;;7.73;60.25;100857.41;10433814;28;20057;-66
2023/02/02 18:23:19;;;;;;;7.18;2.17;;;;;;;7.62;60.27;100858.66;10434070;28;20048;-65
2023/02/02 18:28:20;;;;;;;9.27;2.33;;;;;;;7.70;60.17;100862.72;10433407;28;20137;-66
2023/02/02 18:33:22;;;;;;;5.43;2.17;;;;;;;7.55;60.47;100875.41;10431792;28;20063;-66
2023/02/02 18:38:24;;;;;;;8.00;2.50;;;;;;;7.66;60.09;100876.75;10433625;28;20056;-66
2023/02/02 18:43:26;;;;;;;6.13;2.03;;;;;;;7.50;60.48;100885.94;10432447;28;20116;-66
2023/02/02 18:48:28;;;;;;;28.20;12.02;;;;;;;7.56;60.47;100888.34;10429526;28;20056;-66
2023/02/02 18:53:29;;;;;;;10.02;2.70;;;;;;;7.48;60.33;100884.28;10432741;28;20212;-66
2023/02/02 18:58:32;;;;;;;12.35;3.85;;;;;;;7.47;60.58;100878.22;10430048;28;20049;-66
2023/02/02 19:03:35;;;;;;;11.57;2.05;;;;;;;7.44;60.50;100860.13;10431699;28;20420;-66
2023/02/02 19:08:37;;;;;;;7.35;1.92;;;;;;;7.53;60.47;100867.63;10433243;28;20055;-66
2023/02/02 19:13:38;;;;;;;5.82;1.92;;;;;;;7.54;60.44;100863.28;10430166;28;20057;-66
2023/02/02 19:18:41;;;;;;;6.93;2.30;;;;;;;7.48;60.50;100864.31;10431830;28;20044;-66
2023/02/02 19:23:44;;;;;;;8.27;2.10;;;;;;;7.42;60.78;100858.47;10430336;28;20048;-66
2023/02/02 19:28:46;;;;;;;9.18;2.20;;;;;;;7.49;60.62;100863.41;10430408;28;20051;-66
2023/02/02 19:33:50;;;;;;;10.05;2.38;;;;;;;7.57;60.41;100866.63;10430586;28;20049;-66
2023/02/02 19:38:57;;;;;;;15.65;7.18;;;;;;;7.39;60.75;100866.34;10429523;28;20501;-66
2023/02/02 19:44:05;;;;;;;6.65;3.33;;;;;;;7.49;60.86;100865.19;10430404;28;20124;-66
2023/02/02 19:49:12;;;;;;;8.50;2.60;;;;;;;7.60;60.50;100865.66;10429943;28;20049;-66
2023/02/02 19:54:34;;;;;;;5.82;2.70;;;;;;;7.51;60.36;100871.19;10428570;28;20417;-66
2023/02/02 19:59:36;;;;;;;6.70;2.20;;;;;;;7.49;60.68;100884.22;10429000;28;20098;-66
2023/02/02 20:04:38;;;;;;;8.77;3.17;;;;;;;7.46;60.90;100886.09;10426540;28;20501;-66
2023/02/02 20:09:39;;;;;;;6.57;2.83;;;;;;;7.48;60.69;100886.91;10426963;28;20782;-66
2023/02/02 20:14:41;;;;;;;7.88;3.50;;;;;;;7.50;61.23;100888.56;10429548;28;20063;-67
2023/02/02 20:19:44;;;;;;;9.52;3.22;;;;;;;7.56;60.88;100887.50;10419184;28;20060;-67
2023/02/02 20:24:48;;;;;;;9.27;2.90;;;;;;;7.50;61.09;100883.34;10428142;28;20143;-67
2023/02/02 20:29:53;;;;;;;8.20;2.42;;;;;;;7.41;61.22;100894.03;10429830;28;20045;-67
2023/02/02 20:34:58;;;;;;;7.35;2.40;;;;;;;7.41;61.42;100901.00;10429946;28;20501;-67
2023/02/02 20:40:20;;;;;;;8.70;2.58;;;;;;;7.33;61.60;100903.84;10429363;28;20136;-67
2023/02/02 20:45:22;;;;;;;9.93;2.63;;;;;;;7.31;61.68;100910.84;10429490;28;20524;-67
2023/02/02 20:50:23;;;;;;;11.00;2.67;;;;;;;7.32;61.86;100919.50;10418626;28;20131;-67
2023/02/02 20:55:27;;;;;;;7.75;2.50;;;;;;;7.36;62.06;100916.78;10419726;28;20199;-67
2023/02/02 21:00:29;;;;;;;11.60;3.03;;;;;;;7.38;61.96;100920.19;10419197;28;20139;-67
2023/02/02 21:05:31;;;;;;;10.18;2.50;;;;;;;7.38;62.15;100922.78;10416608;28;20056;-67
2023/02/02 21:10:33;;;;;;;9.60;3.15;;;;;;;7.22;62.67;100920.69;10420630;28;20417;-67
2023/02/02 21:15:35;;;;;;;11.38;3.28;;;;;;;7.23;62.60;100923.22;10425081;28;20059;-67
2023/02/02 21:20:36;;;;;;;9.20;2.60;;;;;;;7.15;63.05;100910.47;10422571;28;20114;-67
2023/02/02 21:25:38;;;;;;;9.77;3.17;;;;;;;7.16;62.73;100900.91;10420752;28;20056;-66
2023/02/02 21:30:40;;;;;;;8.18;2.30;;;;;;;7.15;62.70;100910.47;10418468;28;20093;-67
2023/02/02 21:35:41;;;;;;;8.20;2.75;;;;;;;7.16;62.98;100900.91;10415580;28;20131;-66
2023/02/02 21:40:45;;;;;;;9.95;2.60;;;;;;;7.22;62.44;100890.31;10427257;28;20053;-66
2023/02/02 21:45:50;;;;;;;8.65;2.40;;;;;;;7.09;62.86;100902.00;10424808;28;20063;-66
2023/02/02 21:50:51;;;;;;;7.22;2.85;;;;;;;7.13;62.63;100895.78;10425189;28;20132;-66
2023/02/02 21:55:56;;;;;;;8.95;2.63;;;;;;;7.08;62.76;100897.69;10421600;28;20080;-66
2023/02/02 22:01:13;;;;;;;8.73;2.58;;;;;;;7.11;62.68;100885.44;10419761;28;20071;-67
2023/02/02 22:06:35;;;;;;;10.02;3.50;;;;;;;6.81;63.46;100893.31;10412417;28;20447;-66
2023/02/02 22:11:59;;;;;;;10.95;2.90;;;;;;;6.88;63.23;100890.47;10416112;28;21378;-66
2023/02/02 22:17:07;;;;;;;11.38;3.10;;;;;;;6.95;63.18;100891.16;10414944;28;20139;-66
2023/02/02 22:22:14;;;;;;;8.27;2.53;;;;;;;6.94;63.26;100912.84;10412388;28;20048;-66
2023/02/02 22:27:22;;;;;;;8.98;2.83;;;;;;;6.80;63.57;100922.78;10410622;28;20045;-66
2023/02/02 22:32:24;;;;;;;12.70;2.80;;;;;;;6.90;63.55;100929.41;10414985;28;20044;-66
2023/02/02 22:37:26;;;;;;;9.90;2.95;;;;;;;6.94;63.52;100931.91;10413422;28;20507;-66
2023/02/02 22:42:28;;;;;;;7.55;2.95;;;;;;;6.80;63.92;100933.19;10412407;28;20420;-66
2023/02/02 22:47:30;;;;;;;10.02;2.97;;;;;;;6.85;63.88;100936.53;10412656;28;20424;-66
2023/02/02 22:52:31;;;;;;;12.98;2.95;;;;;;;7.03;63.50;100947.25;10411834;28;20049;-66
2023/02/02 22:57:33;;;;;;;11.13;3.67;;;;;;;6.91;63.87;100944.16;10415146;28;20049;-66
2023/02/02 23:02:35;;;;;;;11.20;3.30;;;;;;;6.99;63.98;100934.38;10421142;28;20523;-66
2023/02/02 23:07:38;;;;;;;7.78;3.03;;;;;;;7.00;64.30;100921.31;10421054;28;20510;-66
2023/02/02 23:12:40;;;;;;;11.15;3.25;;;;;;;7.03;64.50;100916.03;10418986;28;20049;-66
2023/02/02 23:17:42;;;;;;;8.07;2.60;;;;;;;6.93;64.66;100931.94;10423387;28;20249;-66
2023/02/02 23:22:44;;;;;;;10.55;3.08;;;;;;;6.86;64.92;100925.22;10422232;28;20055;-66
2023/02/02 23:27:45;;;;;;;8.82;2.65;;;;;;;6.89;64.99;100931.19;10410928;28;20045;-66
2023/02/02 23:32:47;;;;;;;9.38;2.40;;;;;;;6.85;65.18;100936.53;10418715;28;20481;-66
2023/02/02 23:37:49;;;;;;;6.78;2.55;;;;;;;6.87;65.38;100956.38;10424737;28;20060;-66
2023/02/02 23:42:51;;;;;;;7.93;2.70;;;;;;;7.02;65.11;100965.50;10420921;28;20049;-66